»·PEaware :: NKS711 KSFO-KPDX

NKS711 :: KSFO-KPDX

FLIGHT INFORMATION

Flight Status: Arrived
Operator:
Spirit Airlines
More flights by this operator :: More flights under this callsign
Pilot: Anonymous 15267 (15267)
Aircraft: AIRBUS A320
(A320)
More flights by this aircraft type
Origin: KSFO San Francisco Intl
United States
Destination: KPDX Portland Intl
United States
More flights between these airports :: More routes between these airports
Route: TRUKN2 GRTFL MACHU MOXEE TMBRS2
File this flight plan on PilotEdge
Remarks: RMK / SIMBRIEF
Altitude:
(Current/Filed)
35,000ft
Speed:
(Current/Filed)
440kts
Departed: 12-Jul-20 01:28 PM
Arrived: 12-Jul-20 02:47 PM
Distance/Time
Traveled:
478nm/1:19
Distance/Time
To Go:
Arrived

Flight Plot

Page will automatically refresh every two minutes.


Map Options




Map Legend


Flown Route
Filed Route
Departure Airport
Arrival Airport
Navaid (VOR, NDB)
Fix

Horizontal Profiles

Position Reports

Time Latitude Longitude Heading Altitude Ground
Speed
12-Jul-20 13:10 37.612827 -122.383131 301 27ft 0kts
12-Jul-20 13:11 37.612827 -122.383131 301 27ft 0kts
12-Jul-20 13:12 37.612827 -122.383131 301 27ft 0kts
12-Jul-20 13:13 37.612827 -122.383131 301 27ft 0kts
12-Jul-20 13:14 37.612827 -122.383131 301 27ft 0kts
12-Jul-20 13:14 37.612827 -122.383131 301 27ft 0kts
12-Jul-20 13:16 37.612827 -122.383131 301 27ft 0kts
12-Jul-20 13:16 37.612827 -122.383131 301 27ft 0kts
12-Jul-20 13:17 37.612827 -122.383131 301 27ft 0kts
12-Jul-20 13:19 37.612737 -122.382280 232 27ft 2kts
12-Jul-20 13:19 37.612869 -122.382126 207 27ft 0kts
12-Jul-20 13:20 37.612869 -122.382126 207 27ft 0kts
12-Jul-20 13:21 37.612868 -122.382126 207 27ft 0kts
12-Jul-20 13:22 37.612762 -122.382197 208 27ft 3kts
12-Jul-20 13:23 37.610371 -122.383805 210 27ft 15kts
12-Jul-20 13:24 37.608576 -122.383990 114 27ft 0kts
12-Jul-20 13:25 37.608576 -122.383989 114 27ft 0kts
12-Jul-20 13:26 37.606749 -122.381558 124 27ft 9kts
12-Jul-20 13:27 37.612300 -122.377066 26 27ft 107kts
12-Jul-20 13:28 37.644636 -122.344684 50 1623ft 172kts
12-Jul-20 13:29 37.675889 -122.292191 53 3030ft 232kts
12-Jul-20 13:30 37.719498 -122.220255 31 5233ft 278kts
12-Jul-20 13:31 37.797146 -122.217111 356 7890ft 291kts
12-Jul-20 13:32 37.880260 -122.218685 357 10324ft 306kts
12-Jul-20 13:33 37.972396 -122.221301 357 11549ft 355kts
12-Jul-20 13:34 38.073366 -122.223931 357 13673ft 367kts
12-Jul-20 13:35 38.176805 -122.226696 356 15704ft 377kts
12-Jul-20 13:36 38.283235 -122.229666 356 17641ft 387kts
12-Jul-20 13:37 38.392115 -122.235336 352 19442ft 397kts
12-Jul-20 13:38 38.503846 -122.247369 352 21090ft 407kts
12-Jul-20 13:39 38.617871 -122.259113 351 22595ft 416kts
12-Jul-20 13:40 38.734529 -122.271316 351 23979ft 424kts
12-Jul-20 13:41 38.853122 -122.283748 351 25271ft 431kts
12-Jul-20 13:42 38.973765 -122.296439 351 26506ft 438kts
12-Jul-20 13:43 39.096191 -122.309360 350 27690ft 444kts
12-Jul-20 13:44 39.211237 -122.321526 350 28753ft 450kts
12-Jul-20 13:45 39.337172 -122.334914 350 29854ft 457kts
12-Jul-20 13:46 39.463681 -122.348348 350 31183ft 456kts
12-Jul-20 13:47 39.589820 -122.361874 349 32474ft 454kts
12-Jul-20 13:48 39.715465 -122.375341 349 33640ft 452kts
12-Jul-20 13:49 39.840709 -122.388847 348 34715ft 450kts
12-Jul-20 13:50 39.965693 -122.402366 348 34954ft 449kts
12-Jul-20 13:51 40.090029 -122.415859 348 34949ft 447kts
12-Jul-20 13:52 40.213823 -122.429372 348 34951ft 447kts
12-Jul-20 13:53 40.337796 -122.442925 348 34943ft 447kts
12-Jul-20 13:54 40.461845 -122.456545 348 34978ft 446kts
12-Jul-20 13:55 40.585573 -122.470172 348 34951ft 446kts
12-Jul-20 13:56 40.708984 -122.483806 348 34968ft 445kts
12-Jul-20 13:57 40.832184 -122.497478 348 34997ft 443kts
12-Jul-20 13:58 40.955188 -122.511190 348 35030ft 443kts
12-Jul-20 13:59 41.068841 -122.523915 348 35095ft 442kts
12-Jul-20 14:00 41.191564 -122.537661 348 35137ft 441kts
12-Jul-20 14:01 41.313986 -122.551474 348 35117ft 441kts
12-Jul-20 14:02 41.435913 -122.565260 348 35099ft 441kts
12-Jul-20 14:03 41.558579 -122.577763 350 35097ft 442kts
12-Jul-20 14:04 41.681558 -122.585489 350 35136ft 441kts
12-Jul-20 14:05 41.804179 -122.593616 350 35132ft 441kts
12-Jul-20 14:06 41.926763 -122.601640 350 35109ft 441kts
12-Jul-20 14:07 42.049248 -122.609694 350 35114ft 441kts
12-Jul-20 14:08 42.171663 -122.617805 350 35147ft 439kts
12-Jul-20 14:09 42.293900 -122.625904 350 35118ft 439kts
12-Jul-20 14:10 42.415751 -122.634046 350 35087ft 439kts
12-Jul-20 14:11 42.538084 -122.642222 350 35105ft 438kts
12-Jul-20 14:12 42.659794 -122.650426 349 35088ft 438kts
12-Jul-20 14:13 42.782171 -122.658669 349 35083ft 439kts
12-Jul-20 14:14 42.894636 -122.666288 349 35142ft 438kts
12-Jul-20 14:15 43.016658 -122.674585 349 35129ft 438kts
12-Jul-20 14:16 43.138458 -122.682904 349 35108ft 438kts
12-Jul-20 14:17 43.260458 -122.691252 348 35139ft 438kts
12-Jul-20 14:18 43.382314 -122.699626 348 35184ft 438kts
12-Jul-20 14:19 43.504325 -122.708071 348 35147ft 439kts
12-Jul-20 14:20 43.626353 -122.716524 348 35165ft 439kts
12-Jul-20 14:21 43.748184 -122.725017 348 35004ft 436kts
12-Jul-20 14:22 43.870838 -122.733718 348 32180ft 443kts
12-Jul-20 14:23 43.991010 -122.741960 348 30449ft 422kts
12-Jul-20 14:24 44.106246 -122.750149 348 28537ft 409kts
12-Jul-20 14:25 44.219445 -122.746933 356 26683ft 405kts
12-Jul-20 14:26 44.330047 -122.735398 355 24891ft 392kts
12-Jul-20 14:27 44.437532 -122.724845 356 23130ft 381kts
12-Jul-20 14:28 44.541878 -122.714515 356 21371ft 370kts
12-Jul-20 14:29 44.635487 -122.705177 356 19833ft 360kts
12-Jul-20 14:30 44.734046 -122.695258 356 18166ft 349kts
12-Jul-20 14:31 44.830345 -122.685590 357 16358ft 344kts
12-Jul-20 14:32 44.924086 -122.676115 358 14818ft 331kts
12-Jul-20 14:33 45.015026 -122.666911 358 13236ft 323kts
12-Jul-20 14:34 45.103552 -122.657935 359 11647ft 316kts
12-Jul-20 14:35 45.190544 -122.649108 0 10047ft 309kts
12-Jul-20 14:36 45.274119 -122.654609 337 8444ft 297kts
12-Jul-20 14:37 45.349898 -122.698350 337 6847ft 291kts
12-Jul-20 14:38 45.422844 -122.738135 336 5451ft 280kts
12-Jul-20 14:39 45.490363 -122.775102 337 4978ft 240kts
12-Jul-20 14:40 45.555261 -122.811083 337 3542ft 243kts
12-Jul-20 14:41 45.614935 -122.825172 22 2995ft 218kts
12-Jul-20 14:42 45.657999 -122.770727 90 2463ft 216kts
12-Jul-20 14:43 45.628207 -122.708614 119 1645ft 168kts
12-Jul-20 14:44 45.609537 -122.658587 121 623ft 143kts
12-Jul-20 14:45 45.590223 -122.608838 117 44ft 118kts
12-Jul-20 14:46 45.587017 -122.596995 25 44ft 4kts
12-Jul-20 14:47 45.587587 -122.596832 324 44ft 5kts
12-Jul-20 14:48 45.588703 -122.597507 28 44ft 1kts
12-Jul-20 14:49 45.588828 -122.597409 28 44ft 0kts
12-Jul-20 14:50 45.588828 -122.597409 28 44ft 0kts

Navigation Log

Ident Type
Flight plan parsing failed, navigation log unavailable